Мюнхен, Germany

28 09, 2016 20:42 CEST (GMT +0200)
Maria-Montessori-Straße | | Change Station

В.н.у.м. 1738 ft 48.13 °N, 11.70 °E | Updated 6 minutes ago

Clear
Ясно
66.6 °F
Ощущается Как 66.6 °F
С
0.6
Ветер переменчевый Ветер от Северный
Gusts 1.9 миль/ч

Сегодня
Высокий -- | Низкий -- °F
--% Вероятн. осадков
Вчера
Высокий -- | Низкий -- °F
Precip. -- дюймов
Давление 30.36 дюймов
Видимость -9999.0 милиь
Облачность
Точка Росы 49 °F
Влажность воздуха 53%
Дождь 0.00 дюймов
Глубина снега Нет в наличии.
7:08 AM 6:58 PM
Убывающий полумесяц, 5% visible
METAR EDDM 281820Z 26006KT CAVOK 16/12 Q1028 NOSIG
Давление 30.36 дюймов
Видимость -9999.0 милиь
Облачность
Точка Росы 49 °F
Влажность воздуха 53%
Дождь 0.00 дюймов
Глубина снега Нет в наличии.
7:08 AM 6:58 PM
Убывающий полумесяц, 5% visible
METAR EDDM 281820Z 26006KT CAVOK 16/12 Q1028 NOSIG

10-Day Weather Forecast

×

Almanac

Астрономические явления

Sep. 28, 2016 Восход Закат
Настоящее время
Гражданские сумерки
Навигационные сумерки
Астрономические сумерки
Луна
Длительность светового времени
Продолжительность Дня
Tomorrow will be .
, % of the Moon is Illuminated

Сегодняшние Экстремальные Показания

Country Highs Country Lows

Community

WunderPhotos

Upload Photos

1,942,297 фотографии загружены!

WunderBlog® & News

Nearby

Качество воздуха

  Качество воздуха Индекс AQ Загрязнитель
Not available.

Глубина Снега

Station Depth Высота над уровнем моря

Сейсмическая активность

Город Distance Mag. Time & Date
Minimum magnitude displayed is 2.5.

Температура Прибрежных Вод

Место Температура

Stations

Ближайшие Погодные Станции

Местонахождение Темп. Температура с учетом ветра Точка Росы Влажность воздуха Ветер Precip. В.н.у.м. Последняя сводка Тип